sensor_id;sensor_type;location;lat;lon;timestamp;pressure;altitude;pressure_sealevel;temperature;humidity
77250;BME280;66287;42.658;27.568;2023-04-16T00:01:07;99878.47;;;17.24;58.58
77250;BME280;66287;42.658;27.568;2023-04-16T00:03:32;99879.50;;;17.18;58.70
77250;BME280;66287;42.658;27.568;2023-04-16T00:05:58;99880.34;;;17.18;58.91
77250;BME280;66287;42.658;27.568;2023-04-16T00:08:23;99879.19;;;17.14;58.94
77250;BME280;66287;42.658;27.568;2023-04-16T00:10:49;99876.13;;;17.11;58.96
77250;BME280;66287;42.658;27.568;2023-04-16T00:13:15;99875.22;;;17.05;58.93
77250;BME280;66287;42.658;27.568;2023-04-16T00:15:40;99878.13;;;16.99;59.36
77250;BME280;66287;42.658;27.568;2023-04-16T00:18:06;99878.13;;;16.99;59.13
77250;BME280;66287;42.658;27.568;2023-04-16T00:20:31;99878.66;;;16.96;59.14
77250;BME280;66287;42.658;27.568;2023-04-16T00:22:57;99868.78;;;16.95;59.25
77250;BME280;66287;42.658;27.568;2023-04-16T00:25:22;99867.38;;;16.92;59.42
77250;BME280;66287;42.658;27.568;2023-04-16T00:27:48;99864.88;;;16.91;59.51
77250;BME280;66287;42.658;27.568;2023-04-16T00:30:13;99860.50;;;16.90;59.57
77250;BME280;66287;42.658;27.568;2023-04-16T00:32:39;99861.81;;;16.87;59.81
77250;BME280;66287;42.658;27.568;2023-04-16T00:35:04;99861.16;;;16.80;60.02
77250;BME280;66287;42.658;27.568;2023-04-16T00:37:30;99854.31;;;16.77;60.05
77250;BME280;66287;42.658;27.568;2023-04-16T00:39:55;99862.44;;;16.72;60.12
77250;BME280;66287;42.658;27.568;2023-04-16T00:42:21;99864.59;;;16.70;60.29
77250;BME280;66287;42.658;27.568;2023-04-16T00:44:46;99859.63;;;16.67;60.41
77250;BME280;66287;42.658;27.568;2023-04-16T00:47:11;99864.25;;;16.67;60.47
77250;BME280;66287;42.658;27.568;2023-04-16T00:49:38;99861.28;;;16.68;60.47
77250;BME280;66287;42.658;27.568;2023-04-16T00:52:03;99861.78;;;16.65;60.66
77250;BME280;66287;42.658;27.568;2023-04-16T00:54:29;99853.56;;;16.65;60.30
77250;BME280;66287;42.658;27.568;2023-04-16T00:56:56;99861.41;;;16.62;60.57
77250;BME280;66287;42.658;27.568;2023-04-16T00:59:22;99857.25;;;16.59;60.52
77250;BME280;66287;42.658;27.568;2023-04-16T01:01:48;99852.56;;;16.54;60.72
77250;BME280;66287;42.658;27.568;2023-04-16T01:04:13;99853.06;;;16.51;61.02
77250;BME280;66287;42.658;27.568;2023-04-16T01:06:41;99860.94;;;16.48;60.99
77250;BME280;66287;42.658;27.568;2023-04-16T01:09:06;99854.31;;;16.44;60.79
77250;BME280;66287;42.658;27.568;2023-04-16T01:11:31;99846.34;;;16.42;60.88
77250;BME280;66287;42.658;27.568;2023-04-16T01:13:57;99845.22;;;16.38;60.82
77250;BME280;66287;42.658;27.568;2023-04-16T01:16:22;99847.03;;;16.33;60.98
77250;BME280;66287;42.658;27.568;2023-04-16T01:18:48;99848.00;;;16.27;61.44
77250;BME280;66287;42.658;27.568;2023-04-16T01:21:13;99840.88;;;16.26;61.13
77250;BME280;66287;42.658;27.568;2023-04-16T01:23:38;99842.78;;;16.25;61.31
77250;BME280;66287;42.658;27.568;2023-04-16T01:26:04;99843.28;;;16.22;61.13
77250;BME280;66287;42.658;27.568;2023-04-16T01:28:29;99847.34;;;16.19;61.31
77250;BME280;66287;42.658;27.568;2023-04-16T01:30:55;99840.50;;;16.17;61.44
77250;BME280;66287;42.658;27.568;2023-04-16T01:33:33;99843.97;;;16.12;61.68
77250;BME280;66287;42.658;27.568;2023-04-16T01:35:59;99839.56;;;16.11;61.45
77250;BME280;66287;42.658;27.568;2023-04-16T01:38:24;99841.47;;;16.11;61.73
77250;BME280;66287;42.658;27.568;2023-04-16T01:40:54;99841.72;;;16.09;61.57
77250;BME280;66287;42.658;27.568;2023-04-16T01:43:19;99843.38;;;16.10;61.68
77250;BME280;66287;42.658;27.568;2023-04-16T01:45:45;99834.00;;;16.06;61.83
77250;BME280;66287;42.658;27.568;2023-04-16T01:48:10;99837.72;;;16.00;62.15
77250;BME280;66287;42.658;27.568;2023-04-16T01:50:36;99834.44;;;15.98;62.29
77250;BME280;66287;42.658;27.568;2023-04-16T01:53:01;99837.91;;;15.94;62.40
77250;BME280;66287;42.658;27.568;2023-04-16T01:55:29;99829.94;;;15.92;62.35
77250;BME280;66287;42.658;27.568;2023-04-16T01:57:55;99829.94;;;15.92;62.34
77250;BME280;66287;42.658;27.568;2023-04-16T02:00:24;99835.91;;;15.89;62.48
77250;BME280;66287;42.658;27.568;2023-04-16T02:02:51;99831.75;;;15.87;62.53
77250;BME280;66287;42.658;27.568;2023-04-16T02:05:24;99826.03;;;15.88;62.50
77250;BME280;66287;42.658;27.568;2023-04-16T02:07:49;99816.19;;;15.87;62.39
77250;BME280;66287;42.658;27.568;2023-04-16T02:10:15;99818.81;;;15.82;62.77
77250;BME280;66287;42.658;27.568;2023-04-16T02:12:40;99815.78;;;15.78;62.85
77250;BME280;66287;42.658;27.568;2023-04-16T02:15:06;99819.06;;;15.80;62.86
77250;BME280;66287;42.658;27.568;2023-04-16T02:17:32;99814.13;;;15.77;62.78
77250;BME280;66287;42.658;27.568;2023-04-16T02:20:08;99813.78;;;15.74;62.77
77250;BME280;66287;42.658;27.568;2023-04-16T02:22:38;99809.38;;;15.73;62.91
77250;BME280;66287;42.658;27.568;2023-04-16T02:25:04;99803.59;;;15.69;63.05
77250;BME280;66287;42.658;27.568;2023-04-16T02:27:30;99812.59;;;15.70;62.87
77250;BME280;66287;42.658;27.568;2023-04-16T02:30:04;99803.72;;;15.63;63.05
77250;BME280;66287;42.658;27.568;2023-04-16T02:32:32;99794.47;;;15.64;63.31
77250;BME280;66287;42.658;27.568;2023-04-16T02:34:58;99794.38;;;15.59;63.56
77250;BME280;66287;42.658;27.568;2023-04-16T02:37:23;99790.25;;;15.56;63.37
77250;BME280;66287;42.658;27.568;2023-04-16T02:39:50;99789.28;;;15.50;63.89
77250;BME280;66287;42.658;27.568;2023-04-16T02:42:18;99782.16;;;15.49;63.68
77250;BME280;66287;42.658;27.568;2023-04-16T02:44:43;99801.03;;;15.51;63.60
77250;BME280;66287;42.658;27.568;2023-04-16T02:47:09;99793.31;;;15.48;63.93
77250;BME280;66287;42.658;27.568;2023-04-16T02:49:34;99782.66;;;15.46;63.74
77250;BME280;66287;42.658;27.568;2023-04-16T02:52:00;99794.63;;;15.45;63.97
77250;BME280;66287;42.658;27.568;2023-04-16T02:54:25;99792.41;;;15.42;63.94
77250;BME280;66287;42.658;27.568;2023-04-16T02:56:51;99794.78;;;15.39;64.33
77250;BME280;66287;42.658;27.568;2023-04-16T02:59:16;99793.47;;;15.41;64.16
77250;BME280;66287;42.658;27.568;2023-04-16T03:01:42;99801.06;;;15.39;64.28
77250;BME280;66287;42.658;27.568;2023-04-16T03:04:07;99796.94;;;15.37;64.54
77250;BME280;66287;42.658;27.568;2023-04-16T03:06:33;99798.84;;;15.36;64.35
77250;BME280;66287;42.658;27.568;2023-04-16T03:08:58;99800.75;;;15.36;64.68
77250;BME280;66287;42.658;27.568;2023-04-16T03:11:24;99799.44;;;15.38;64.42
77250;BME280;66287;42.658;27.568;2023-04-16T03:13:49;99799.94;;;15.35;64.52
77250;BME280;66287;42.658;27.568;2023-04-16T03:16:15;99803.25;;;15.37;64.72
77250;BME280;66287;42.658;27.568;2023-04-16T03:18:40;99799.16;;;15.40;64.37
77250;BME280;66287;42.658;27.568;2023-04-16T03:21:06;99802.97;;;15.39;64.84
77250;BME280;66287;42.658;27.568;2023-04-16T03:23:31;99793.41;;;15.36;64.77
77250;BME280;66287;42.658;27.568;2023-04-16T03:25:57;99802.66;;;15.35;64.87
77250;BME280;66287;42.658;27.568;2023-04-16T03:28:23;99803.47;;;15.36;64.87
77250;BME280;66287;42.658;27.568;2023-04-16T03:30:49;99799.56;;;15.32;65.15
77250;BME280;66287;42.658;27.568;2023-04-16T03:33:14;99799.34;;;15.33;65.02
77250;BME280;66287;42.658;27.568;2023-04-16T03:35:40;99805.03;;;15.32;65.00
77250;BME280;66287;42.658;27.568;2023-04-16T03:38:06;99810.50;;;15.32;65.47
77250;BME280;66287;42.658;27.568;2023-04-16T03:40:31;99806.94;;;15.31;65.34
77250;BME280;66287;42.658;27.568;2023-04-16T03:42:58;99811.56;;;15.31;65.15
77250;BME280;66287;42.658;27.568;2023-04-16T03:45:23;99810.16;;;15.28;65.51
77250;BME280;66287;42.658;27.568;2023-04-16T03:47:50;99811.22;;;15.27;65.59
77250;BME280;66287;42.658;27.568;2023-04-16T03:50:19;99806.59;;;15.28;65.65
77250;BME280;66287;42.658;27.568;2023-04-16T03:52:45;99813.72;;;15.29;65.87
77250;BME280;66287;42.658;27.568;2023-04-16T03:55:12;99820.09;;;15.34;65.72
77250;BME280;66287;42.658;27.568;2023-04-16T03:57:38;99820.09;;;15.34;66.01
77250;BME280;66287;42.658;27.568;2023-04-16T04:00:08;99817.13;;;15.36;66.11
77250;BME280;66287;42.658;27.568;2023-04-16T04:02:49;99817.44;;;15.39;66.03
77250;BME280;66287;42.658;27.568;2023-04-16T04:05:17;99814.72;;;15.39;66.00
77250;BME280;66287;42.658;27.568;2023-04-16T04:07:44;99818.88;;;15.42;66.29
77250;BME280;66287;42.658;27.568;2023-04-16T04:10:09;99814.59;;;15.46;65.86
77250;BME280;66287;42.658;27.568;2023-04-16T04:12:38;99827.50;;;15.50;65.68
77250;BME280;66287;42.658;27.568;2023-04-16T04:15:04;99820.75;;;15.53;65.46
77250;BME280;66287;42.658;27.568;2023-04-16T04:17:29;99827.03;;;15.54;65.84
77250;BME280;66287;42.658;27.568;2023-04-16T04:19:55;99827.28;;;15.52;66.17
77250;BME280;66287;42.658;27.568;2023-04-16T04:22:20;99824.91;;;15.56;65.91
77250;BME280;66287;42.658;27.568;2023-04-16T04:24:46;99817.31;;;15.58;66.20
77250;BME280;66287;42.658;27.568;2023-04-16T04:27:12;99823.44;;;15.65;65.95
77250;BME280;66287;42.658;27.568;2023-04-16T04:29:37;99823.28;;;15.71;65.95
77250;BME280;66287;42.658;27.568;2023-04-16T04:32:03;99823.69;;;15.80;66.04
77250;BME280;66287;42.658;27.568;2023-04-16T04:34:28;99832.09;;;15.90;65.54
77250;BME280;66287;42.658;27.568;2023-04-16T04:36:56;99834.09;;;15.95;65.46
77250;BME280;66287;42.658;27.568;2023-04-16T04:39:21;99826.22;;;15.98;65.76
77250;BME280;66287;42.658;27.568;2023-04-16T04:41:48;99829.28;;;16.02;65.87
77250;BME280;66287;42.658;27.568;2023-04-16T04:44:13;99831.28;;;16.06;65.54
77250;BME280;66287;42.658;27.568;2023-04-16T04:46:40;99827.56;;;16.12;65.91
77250;BME280;66287;42.658;27.568;2023-04-16T04:49:05;99831.84;;;16.25;65.42
77250;BME280;66287;42.658;27.568;2023-04-16T04:51:31;99832.03;;;16.35;65.95
77250;BME280;66287;42.658;27.568;2023-04-16T04:53:56;99834.56;;;16.42;66.17
77250;BME280;66287;42.658;27.568;2023-04-16T04:56:22;99837.16;;;16.48;65.89
77250;BME280;66287;42.658;27.568;2023-04-16T04:58:50;99834.25;;;16.55;65.56
77250;BME280;66287;42.658;27.568;2023-04-16T05:01:17;99832.75;;;16.64;65.52
77250;BME280;66287;42.658;27.568;2023-04-16T05:03:43;99828.78;;;16.72;65.24
77250;BME280;66287;42.658;27.568;2023-04-16T05:06:08;99819.81;;;16.76;63.71
77250;BME280;66287;42.658;27.568;2023-04-16T05:08:34;99826.41;;;16.80;63.77
77250;BME280;66287;42.658;27.568;2023-04-16T05:10:59;99824.09;;;16.89;64.25
77250;BME280;66287;42.658;27.568;2023-04-16T05:13:25;99814.34;;;16.98;64.14
77250;BME280;66287;42.658;27.568;2023-04-16T05:15:50;99821.28;;;17.06;63.19
77250;BME280;66287;42.658;27.568;2023-04-16T05:18:15;99814.53;;;17.13;63.04
77250;BME280;66287;42.658;27.568;2023-04-16T05:20:41;99816.13;;;17.31;63.78
77250;BME280;66287;42.658;27.568;2023-04-16T05:23:06;99822.91;;;17.50;63.39
77250;BME280;66287;42.658;27.568;2023-04-16T05:25:31;99824.09;;;17.60;62.77
77250;BME280;66287;42.658;27.568;2023-04-16T05:27:57;99829.66;;;17.65;62.45
77250;BME280;66287;42.658;27.568;2023-04-16T05:30:22;99842.75;;;17.63;62.79
77250;BME280;66287;42.658;27.568;2023-04-16T05:32:48;99837.78;;;17.60;62.54
77250;BME280;66287;42.658;27.568;2023-04-16T05:35:13;99834.22;;;17.59;62.86
77250;BME280;66287;42.658;27.568;2023-04-16T05:37:38;99832.41;;;17.65;62.88
77250;BME280;66287;42.658;27.568;2023-04-16T05:40:04;99820.97;;;17.73;62.82
77250;BME280;66287;42.658;27.568;2023-04-16T05:42:30;99833.34;;;17.75;62.52
77250;BME280;66287;42.658;27.568;2023-04-16T05:44:55;99838.81;;;17.75;62.62
77250;BME280;66287;42.658;27.568;2023-04-16T05:47:20;99831.94;;;17.73;62.44
77250;BME280;66287;42.658;27.568;2023-04-16T05:49:46;99835.78;;;17.72;62.41
77250;BME280;66287;42.658;27.568;2023-04-16T05:52:11;99823.50;;;17.79;62.48
77250;BME280;66287;42.658;27.568;2023-04-16T05:54:37;99820.09;;;17.94;62.32
77250;BME280;66287;42.658;27.568;2023-04-16T05:57:02;99827.41;;;18.15;62.72
77250;BME280;66287;42.658;27.568;2023-04-16T05:59:28;99831.41;;;18.40;62.06
77250;BME280;66287;42.658;27.568;2023-04-16T06:01:54;99833.72;;;18.53;61.63
77250;BME280;66287;42.658;27.568;2023-04-16T06:04:20;99833.84;;;18.68;61.94
77250;BME280;66287;42.658;27.568;2023-04-16T06:06:45;99829.88;;;18.91;61.33
77250;BME280;66287;42.658;27.568;2023-04-16T06:09:11;99829.94;;;19.06;61.28
77250;BME280;66287;42.658;27.568;2023-04-16T06:11:36;99834.06;;;19.09;60.69
77250;BME280;66287;42.658;27.568;2023-04-16T06:14:02;99825.25;;;19.02;60.55
77250;BME280;66287;42.658;27.568;2023-04-16T06:16:27;99828.50;;;18.93;60.68
77250;BME280;66287;42.658;27.568;2023-04-16T06:18:52;99824.09;;;18.92;60.81
77250;BME280;66287;42.658;27.568;2023-04-16T06:21:21;99826.06;;;18.97;60.79
77250;BME280;66287;42.658;27.568;2023-04-16T06:23:46;99831.28;;;19.04;60.53
77250;BME280;66287;42.658;27.568;2023-04-16T06:26:12;99838.47;;;19.10;60.39
77250;BME280;66287;42.658;27.568;2023-04-16T06:28:37;99826.94;;;19.13;60.45
77250;BME280;66287;42.658;27.568;2023-04-16T06:31:03;99829.16;;;19.16;60.43
77250;BME280;66287;42.658;27.568;2023-04-16T06:33:28;99825.31;;;19.22;60.25
77250;BME280;66287;42.658;27.568;2023-04-16T06:35:54;99824.53;;;19.26;60.15
77250;BME280;66287;42.658;27.568;2023-04-16T06:38:19;99835.00;;;19.35;60.28
77250;BME280;66287;42.658;27.568;2023-04-16T06:40:45;99832.53;;;19.43;60.06
77250;BME280;66287;42.658;27.568;2023-04-16T06:43:10;99834.28;;;19.54;59.53
77250;BME280;66287;42.658;27.568;2023-04-16T06:45:36;99816.44;;;19.72;59.26
77250;BME280;66287;42.658;27.568;2023-04-16T06:48:01;99810.69;;;19.94;57.79
77250;BME280;66287;42.658;27.568;2023-04-16T06:50:27;99822.25;;;20.42;59.10
77250;BME280;66287;42.658;27.568;2023-04-16T06:52:53;99814.47;;;20.89;57.64
77250;BME280;66287;42.658;27.568;2023-04-16T06:55:19;99822.19;;;20.92;55.14
77250;BME280;66287;42.658;27.568;2023-04-16T06:57:44;99827.63;;;21.13;54.74
77250;BME280;66287;42.658;27.568;2023-04-16T07:00:10;99827.03;;;21.21;54.62
77250;BME280;66287;42.658;27.568;2023-04-16T07:02:36;99822.06;;;21.33;55.17
77250;BME280;66287;42.658;27.568;2023-04-16T07:05:01;99825.81;;;21.47;54.99
77250;BME280;66287;42.658;27.568;2023-04-16T07:07:27;99824.47;;;21.89;55.32
77250;BME280;66287;42.658;27.568;2023-04-16T07:09:52;99814.00;;;22.25;51.61
77250;BME280;66287;42.658;27.568;2023-04-16T07:12:18;99819.09;;;22.71;52.39
77250;BME280;66287;42.658;27.568;2023-04-16T07:14:44;99822.66;;;23.24;50.13
77250;BME280;66287;42.658;27.568;2023-04-16T07:17:09;99816.25;;;23.28;47.83
77250;BME280;66287;42.658;27.568;2023-04-16T07:19:34;99815.56;;;23.18;49.33
77250;BME280;66287;42.658;27.568;2023-04-16T07:22:01;99818.91;;;22.91;48.74
77250;BME280;66287;42.658;27.568;2023-04-16T07:24:26;99815.38;;;22.85;50.16
77250;BME280;66287;42.658;27.568;2023-04-16T07:26:51;99814.09;;;22.73;50.79
77250;BME280;66287;42.658;27.568;2023-04-16T07:29:17;99822.75;;;22.37;50.60
77250;BME280;66287;42.658;27.568;2023-04-16T07:31:43;99820.47;;;22.10;50.57
77250;BME280;66287;42.658;27.568;2023-04-16T07:34:08;99829.06;;;22.04;50.52
77250;BME280;66287;42.658;27.568;2023-04-16T07:36:34;99818.66;;;22.29;51.66
77250;BME280;66287;42.658;27.568;2023-04-16T07:38:59;99810.84;;;22.94;50.17
77250;BME280;66287;42.658;27.568;2023-04-16T07:41:25;99817.44;;;23.65;49.86
77250;BME280;66287;42.658;27.568;2023-04-16T07:43:50;99812.03;;;24.11;45.72
77250;BME280;66287;42.658;27.568;2023-04-16T07:46:15;99813.06;;;24.15;47.86
77250;BME280;66287;42.658;27.568;2023-04-16T07:48:41;99815.03;;;23.96;46.23
77250;BME280;66287;42.658;27.568;2023-04-16T07:51:06;99814.34;;;23.85;47.75
77250;BME280;66287;42.658;27.568;2023-04-16T07:53:32;99810.00;;;23.60;46.54
77250;BME280;66287;42.658;27.568;2023-04-16T07:55:57;99804.78;;;23.59;48.95
77250;BME280;66287;42.658;27.568;2023-04-16T07:58:23;99807.66;;;23.49;48.00
77250;BME280;66287;42.658;27.568;2023-04-16T08:00:48;99815.59;;;23.36;47.22
77250;BME280;66287;42.658;27.568;2023-04-16T08:03:13;99823.22;;;23.21;48.16
77250;BME280;66287;42.658;27.568;2023-04-16T08:05:40;99825.13;;;23.01;48.37
77250;BME280;66287;42.658;27.568;2023-04-16T08:08:05;99823.44;;;23.06;48.60
77250;BME280;66287;42.658;27.568;2023-04-16T08:10:31;99817.06;;;22.81;48.99
77250;BME280;66287;42.658;27.568;2023-04-16T08:12:57;99812.91;;;23.08;48.79
77250;BME280;66287;42.658;27.568;2023-04-16T08:15:24;99814.75;;;23.97;48.00
77250;BME280;66287;42.658;27.568;2023-04-16T08:17:50;99819.56;;;24.57;46.41
77250;BME280;66287;42.658;27.568;2023-04-16T08:20:16;99824.38;;;24.97;44.39
77250;BME280;66287;42.658;27.568;2023-04-16T08:22:41;99822.06;;;24.39;45.39
77250;BME280;66287;42.658;27.568;2023-04-16T08:25:07;99823.72;;;24.22;45.82
77250;BME280;66287;42.658;27.568;2023-04-16T08:27:32;99826.31;;;23.81;45.93
77250;BME280;66287;42.658;27.568;2023-04-16T08:29:58;99824.53;;;23.52;47.03
77250;BME280;66287;42.658;27.568;2023-04-16T08:32:23;99811.16;;;22.93;48.52
77250;BME280;66287;42.658;27.568;2023-04-16T08:34:48;99820.84;;;22.90;47.42
77250;BME280;66287;42.658;27.568;2023-04-16T08:37:14;99825.41;;;23.00;49.81
77250;BME280;66287;42.658;27.568;2023-04-16T08:39:39;99823.78;;;23.23;47.45
77250;BME280;66287;42.658;27.568;2023-04-16T08:42:05;99822.38;;;23.44;46.29
77250;BME280;66287;42.658;27.568;2023-04-16T08:44:36;99812.16;;;23.45;46.18
77250;BME280;66287;42.658;27.568;2023-04-16T08:47:04;99817.13;;;23.85;45.89
77250;BME280;66287;42.658;27.568;2023-04-16T08:49:31;99819.28;;;24.07;46.09
77250;BME280;66287;42.658;27.568;2023-04-16T08:52:20;99815.69;;;23.88;45.04
77250;BME280;66287;42.658;27.568;2023-04-16T08:57:14;99820.34;;;23.92;44.82
77250;BME280;66287;42.658;27.568;2023-04-16T08:59:44;99829.47;;;23.93;44.41
77250;BME280;66287;42.658;27.568;2023-04-16T09:02:10;99839.50;;;23.89;44.13
77250;BME280;66287;42.658;27.568;2023-04-16T09:04:37;99832.25;;;23.74;45.58
77250;BME280;66287;42.658;27.568;2023-04-16T09:07:02;99831.25;;;23.84;45.93
77250;BME280;66287;42.658;27.568;2023-04-16T09:09:28;99834.56;;;23.67;46.35
77250;BME280;66287;42.658;27.568;2023-04-16T09:11:55;99835.69;;;23.85;44.92
77250;BME280;66287;42.658;27.568;2023-04-16T09:14:20;99831.63;;;24.33;45.26
77250;BME280;66287;42.658;27.568;2023-04-16T09:16:46;99836.31;;;24.65;46.32
77250;BME280;66287;42.658;27.568;2023-04-16T09:19:12;99835.75;;;25.23;43.70
77250;BME280;66287;42.658;27.568;2023-04-16T09:21:39;99837.59;;;25.55;41.60
77250;BME280;66287;42.658;27.568;2023-04-16T09:24:05;99832.97;;;25.64;42.67
77250;BME280;66287;42.658;27.568;2023-04-16T09:26:30;99833.88;;;25.73;41.44
77250;BME280;66287;42.658;27.568;2023-04-16T09:28:56;99823.97;;;25.81;42.15
77250;BME280;66287;42.658;27.568;2023-04-16T09:31:22;99823.41;;;25.70;39.70
77250;BME280;66287;42.658;27.568;2023-04-16T09:36:39;99822.31;;;25.30;43.56
77250;BME280;66287;42.658;27.568;2023-04-16T09:39:04;99812.84;;;25.95;40.78
77250;BME280;66287;42.658;27.568;2023-04-16T09:41:30;99801.78;;;26.03;40.98
77250;BME280;66287;42.658;27.568;2023-04-16T09:43:57;99797.19;;;27.71;39.35
77250;BME280;66287;42.658;27.568;2023-04-16T09:46:43;99794.25;;;28.83;37.02
77250;BME280;66287;42.658;27.568;2023-04-16T09:49:09;99787.63;;;29.34;36.75
77250;BME280;66287;42.658;27.568;2023-04-16T09:51:39;99798.06;;;30.29;36.49
77250;BME280;66287;42.658;27.568;2023-04-16T09:54:05;99791.09;;;30.68;33.52
77250;BME280;66287;42.658;27.568;2023-04-16T09:56:31;99791.25;;;30.96;31.85
77250;BME280;66287;42.658;27.568;2023-04-16T09:58:58;99789.38;;;31.00;33.36
77250;BME280;66287;42.658;27.568;2023-04-16T10:01:23;99786.13;;;31.23;30.85
77250;BME280;66287;42.658;27.568;2023-04-16T10:03:52;99791.53;;;31.15;32.01
77250;BME280;66287;42.658;27.568;2023-04-16T10:06:18;99794.78;;;31.17;31.31
77250;BME280;66287;42.658;27.568;2023-04-16T10:08:50;99799.28;;;31.71;30.20
77250;BME280;66287;42.658;27.568;2023-04-16T10:11:17;99790.31;;;32.33;30.06
77250;BME280;66287;42.658;27.568;2023-04-16T10:13:42;99789.22;;;33.13;28.60
77250;BME280;66287;42.658;27.568;2023-04-16T10:16:08;99793.13;;;32.93;30.36
77250;BME280;66287;42.658;27.568;2023-04-16T10:18:37;99798.69;;;33.56;28.18
77250;BME280;66287;42.658;27.568;2023-04-16T10:21:03;99800.47;;;33.29;29.54
77250;BME280;66287;42.658;27.568;2023-04-16T10:23:28;99794.56;;;32.27;29.06
77250;BME280;66287;42.658;27.568;2023-04-16T10:25:54;99787.41;;;32.30;29.41
77250;BME280;66287;42.658;27.568;2023-04-16T10:28:20;99780.28;;;31.03;30.12
77250;BME280;66287;42.658;27.568;2023-04-16T10:30:47;99787.41;;;29.10;31.89
77250;BME280;66287;42.658;27.568;2023-04-16T10:33:24;99781.81;;;28.72;33.84
77250;BME280;66287;42.658;27.568;2023-04-16T10:35:51;99778.16;;;28.25;34.93
77250;BME280;66287;42.658;27.568;2023-04-16T10:38:20;99777.19;;;28.03;35.07
77250;BME280;66287;42.658;27.568;2023-04-16T10:40:47;99777.19;;;28.03;35.07
77250;BME280;66287;42.658;27.568;2023-04-16T10:43:16;99784.38;;;27.53;36.69
77250;BME280;66287;42.658;27.568;2023-04-16T10:45:42;99783.97;;;26.80;36.14
77250;BME280;66287;42.658;27.568;2023-04-16T10:48:07;99794.91;;;27.07;36.82
77250;BME280;66287;42.658;27.568;2023-04-16T10:50:36;99801.47;;;27.12;37.02
77250;BME280;66287;42.658;27.568;2023-04-16T10:53:24;99822.16;;;26.66;37.90
77250;BME280;66287;42.658;27.568;2023-04-16T10:55:57;99823.38;;;26.29;37.51
77250;BME280;66287;42.658;27.568;2023-04-16T10:58:26;99829.97;;;25.74;37.71
77250;BME280;66287;42.658;27.568;2023-04-16T11:00:52;99832.13;;;25.78;38.55
77250;BME280;66287;42.658;27.568;2023-04-16T11:03:17;99838.41;;;25.69;38.12
77250;BME280;66287;42.658;27.568;2023-04-16T11:05:45;99826.19;;;25.70;38.66
77250;BME280;66287;42.658;27.568;2023-04-16T11:08:14;99815.78;;;25.76;38.69
77250;BME280;66287;42.658;27.568;2023-04-16T11:10:40;99823.59;;;25.74;39.19
77250;BME280;66287;42.658;27.568;2023-04-16T11:13:05;99821.13;;;25.59;39.40
77250;BME280;66287;42.658;27.568;2023-04-16T11:15:31;99807.06;;;25.41;40.54
77250;BME280;66287;42.658;27.568;2023-04-16T11:17:57;99788.72;;;25.32;40.92
77250;BME280;66287;42.658;27.568;2023-04-16T11:20:23;99796.38;;;25.49;40.84
77250;BME280;66287;42.658;27.568;2023-04-16T11:22:51;99813.06;;;25.85;40.17
77250;BME280;66287;42.658;27.568;2023-04-16T11:25:18;99826.41;;;25.96;39.76
77250;BME280;66287;42.658;27.568;2023-04-16T11:27:43;99844.06;;;26.00;40.22
77250;BME280;66287;42.658;27.568;2023-04-16T11:30:09;99844.47;;;25.58;40.74
77250;BME280;66287;42.658;27.568;2023-04-16T11:32:35;99838.41;;;25.56;40.58
77250;BME280;66287;42.658;27.568;2023-04-16T11:35:01;99831.78;;;25.16;39.39
77250;BME280;66287;42.658;27.568;2023-04-16T11:37:32;99827.31;;;24.87;40.43
77250;BME280;66287;42.658;27.568;2023-04-16T11:39:58;99817.72;;;24.66;41.55
77250;BME280;66287;42.658;27.568;2023-04-16T11:42:24;99812.72;;;24.68;41.17
77250;BME280;66287;42.658;27.568;2023-04-16T11:44:51;99813.91;;;24.62;39.50
77250;BME280;66287;42.658;27.568;2023-04-16T11:47:17;99794.28;;;24.45;40.06
77250;BME280;66287;42.658;27.568;2023-04-16T11:49:43;99791.78;;;24.29;41.03
77250;BME280;66287;42.658;27.568;2023-04-16T11:52:08;99780.50;;;24.26;41.67
77250;BME280;66287;42.658;27.568;2023-04-16T11:54:34;99777.59;;;24.17;41.53
77250;BME280;66287;42.658;27.568;2023-04-16T11:57:00;99769.69;;;23.92;41.78
77250;BME280;66287;42.658;27.568;2023-04-16T11:59:28;99768.38;;;23.52;42.25
77250;BME280;66287;42.658;27.568;2023-04-16T12:01:54;99773.53;;;23.58;42.46
77250;BME280;66287;42.658;27.568;2023-04-16T12:04:24;99778.03;;;23.54;42.28
77250;BME280;66287;42.658;27.568;2023-04-16T12:09:33;99816.16;;;23.57;42.84
77250;BME280;66287;42.658;27.568;2023-04-16T12:12:00;99814.75;;;22.93;43.79
77250;BME280;66287;42.658;27.568;2023-04-16T12:14:25;99807.03;;;23.14;43.95
77250;BME280;66287;42.658;27.568;2023-04-16T12:16:51;99799.03;;;23.13;43.61
77250;BME280;66287;42.658;27.568;2023-04-16T12:19:16;99799.03;;;23.13;44.04
77250;BME280;66287;42.658;27.568;2023-04-16T12:21:43;99782.94;;;22.67;43.99
77250;BME280;66287;42.658;27.568;2023-04-16T12:24:10;99776.31;;;22.68;44.71
77250;BME280;66287;42.658;27.568;2023-04-16T12:31:41;99696.59;;;22.04;47.23
77250;BME280;66287;42.658;27.568;2023-04-16T12:34:06;99679.50;;;22.02;47.36
77250;BME280;66287;42.658;27.568;2023-04-16T12:36:32;99704.44;;;22.20;47.16
77250;BME280;66287;42.658;27.568;2023-04-16T12:38:57;99715.19;;;22.75;46.78
77250;BME280;66287;42.658;27.568;2023-04-16T12:41:22;99702.97;;;22.99;45.96
77250;BME280;66287;42.658;27.568;2023-04-16T12:43:48;99681.31;;;23.44;45.43
77250;BME280;66287;42.658;27.568;2023-04-16T12:46:13;99669.09;;;23.83;44.81
77250;BME280;66287;42.658;27.568;2023-04-16T12:48:38;99654.44;;;23.82;45.00
77250;BME280;66287;42.658;27.568;2023-04-16T12:51:04;99664.66;;;24.14;43.97
77250;BME280;66287;42.658;27.568;2023-04-16T12:53:30;99671.25;;;24.59;43.06
77250;BME280;66287;42.658;27.568;2023-04-16T12:55:55;99677.00;;;24.90;42.61
77250;BME280;66287;42.658;27.568;2023-04-16T12:58:20;99669.78;;;25.03;42.64